createdAt,value
2023-04-15T00:00:21.765Z,76.17
2023-04-15T00:03:23.751Z,76.22
2023-04-15T00:06:26.502Z,76.02
2023-04-15T00:09:28.653Z,76.13
2023-04-15T00:12:30.389Z,76.30
2023-04-15T00:15:32.850Z,76.29
2023-04-15T00:18:35.725Z,76.61
2023-04-15T00:21:37.442Z,76.43
2023-04-15T00:24:39.789Z,76.50
2023-04-15T00:27:42.325Z,76.57
2023-04-15T00:30:44.554Z,76.14
2023-04-15T00:33:46.434Z,76.27
2023-04-15T00:36:48.366Z,76.15
2023-04-15T00:39:50.549Z,76.20
2023-04-15T00:42:52.784Z,76.18
2023-04-15T00:45:56.098Z,76.55
2023-04-15T00:48:57.960Z,76.67
2023-04-15T00:51:59.806Z,76.59
2023-04-15T00:55:02.428Z,76.48
2023-04-15T00:58:04.951Z,76.50
2023-04-15T01:01:06.881Z,76.31
2023-04-15T01:04:10.386Z,76.31
2023-04-15T01:07:12.324Z,76.29
2023-04-15T01:10:14.431Z,76.27
2023-04-15T01:13:17.615Z,76.73
2023-04-15T01:16:20.903Z,76.92
2023-04-15T01:19:22.744Z,76.69
2023-04-15T01:22:26.789Z,77.06
2023-04-15T01:25:35.062Z,77.25
2023-04-15T01:28:37.824Z,77.08
2023-04-15T01:31:40.158Z,76.88
2023-04-15T01:34:42.356Z,76.66
2023-04-15T01:37:44.772Z,76.46
2023-04-15T01:40:46.478Z,76.52
2023-04-15T01:43:48.278Z,76.31
2023-04-15T01:46:50.366Z,76.50
2023-04-15T01:49:52.205Z,76.18
2023-04-15T01:52:53.916Z,76.20
2023-04-15T01:55:55.683Z,76.16
2023-04-15T01:58:57.623Z,76.45
2023-04-15T02:02:00.101Z,76.03
2023-04-15T02:05:02.433Z,76.05
2023-04-15T02:08:04.351Z,76.00
2023-04-15T02:11:06.170Z,76.14
2023-04-15T02:14:07.950Z,76.01
2023-04-15T02:17:09.707Z,75.82
2023-04-15T02:20:12.052Z,75.78
2023-04-15T02:23:14.048Z,75.99
2023-04-15T02:26:18.882Z,75.95
2023-04-15T02:29:20.750Z,75.82
2023-04-15T02:37:11.801Z,75.65
2023-04-15T02:40:13.756Z,76.07
2023-04-15T02:43:17.262Z,76.06
2023-04-15T02:46:19.316Z,76.01
2023-04-15T02:49:21.922Z,76.11
2023-04-15T02:52:24.719Z,76.04
2023-04-15T02:55:26.941Z,75.90
2023-04-15T02:58:28.664Z,75.69
2023-04-15T03:01:30.615Z,76.11
2023-04-15T03:04:32.502Z,76.07
2023-04-15T03:07:34.338Z,75.99
2023-04-15T03:10:37.459Z,76.12
2023-04-15T03:13:41.793Z,76.22
2023-04-15T03:16:52.006Z,76.29
2023-04-15T03:19:54.553Z,76.25
2023-04-15T03:22:56.995Z,76.63
2023-04-15T03:26:02.894Z,76.70
2023-04-15T03:29:06.610Z,76.47
2023-04-15T03:32:08.737Z,76.35
2023-04-15T03:35:10.581Z,76.63
2023-04-15T03:38:12.509Z,76.23
2023-04-15T03:41:14.339Z,76.49
2023-04-15T03:44:16.379Z,76.79
2023-04-15T03:47:18.178Z,76.70
2023-04-15T03:50:19.976Z,76.43
2023-04-15T03:53:22.063Z,76.46
2023-04-15T03:56:23.839Z,76.46
2023-04-15T03:59:27.177Z,76.30
2023-04-15T04:02:29.024Z,76.30
2023-04-15T04:05:31.348Z,75.94
2023-04-15T04:08:33.053Z,76.08
2023-04-15T04:11:34.891Z,76.02
2023-04-15T04:14:36.686Z,75.99
2023-04-15T04:17:38.504Z,75.76
2023-04-15T04:20:40.607Z,75.57
2023-04-15T04:23:42.484Z,75.62
2023-04-15T04:26:44.262Z,75.53
2023-04-15T04:29:47.948Z,75.79
2023-04-15T04:32:51.019Z,75.73
2023-04-15T04:35:52.816Z,75.55
2023-04-15T04:38:54.652Z,75.97
2023-04-15T04:41:56.443Z,75.49
2023-04-15T04:44:58.237Z,75.44
2023-04-15T04:48:00.167Z,75.35
2023-04-15T04:51:02.236Z,75.50
2023-04-15T04:54:04.513Z,75.17
2023-04-15T04:57:07.941Z,75.26
2023-04-15T05:00:11.293Z,75.49
2023-04-15T05:03:13.205Z,75.52
2023-04-15T05:06:15.145Z,75.52
2023-04-15T05:09:16.952Z,75.40
2023-04-15T05:12:18.773Z,75.32
2023-04-15T05:15:20.547Z,75.23
2023-04-15T05:18:25.189Z,75.00
2023-04-15T05:21:27.811Z,74.86
2023-04-15T05:24:29.681Z,75.12
2023-04-15T05:27:31.796Z,75.30
2023-04-15T05:30:33.827Z,75.16
2023-04-15T05:33:35.880Z,74.70
2023-04-15T05:36:37.808Z,74.74
2023-04-15T05:39:39.705Z,74.47
2023-04-15T05:42:41.462Z,74.37
2023-04-15T05:45:43.405Z,74.44
2023-04-15T05:48:45.678Z,74.16
2023-04-15T05:51:48.600Z,73.98
2023-04-15T05:54:50.726Z,73.69
2023-04-15T05:57:52.559Z,73.60
2023-04-15T06:00:55.035Z,73.32
2023-04-15T06:03:57.160Z,73.16
2023-04-15T06:06:59.977Z,73.17
2023-04-15T06:10:01.797Z,73.19
2023-04-15T06:13:04.338Z,73.22
2023-04-15T06:16:07.006Z,72.71
2023-04-15T06:19:08.985Z,72.50
2023-04-15T06:22:10.895Z,71.96
2023-04-15T06:25:12.830Z,72.09
2023-04-15T06:28:14.619Z,72.10
2023-04-15T06:31:16.547Z,71.62
2023-04-15T06:34:18.443Z,71.06
2023-04-15T06:37:20.236Z,70.88
2023-04-15T06:40:21.989Z,70.24
2023-04-15T06:43:24.342Z,69.88
2023-04-15T06:46:26.242Z,70.16
2023-04-15T06:49:28.176Z,69.89
2023-04-15T06:52:29.928Z,69.43
2023-04-15T06:55:32.499Z,69.47
2023-04-15T06:58:34.381Z,69.18
2023-04-15T07:01:36.626Z,69.45
2023-04-15T07:04:38.675Z,69.29
2023-04-15T07:07:41.266Z,69.19
2023-04-15T07:10:43.130Z,68.97
2023-04-15T07:13:45.606Z,69.21
2023-04-15T07:16:47.697Z,68.78
2023-04-15T07:19:50.089Z,68.28
2023-04-15T07:22:51.923Z,67.73
2023-04-15T07:25:53.794Z,67.46
2023-04-15T07:28:55.714Z,66.38
2023-04-15T07:31:57.588Z,64.20
2023-04-15T07:34:59.496Z,62.77
2023-04-15T07:38:01.653Z,60.89
2023-04-15T07:41:03.675Z,59.10
2023-04-15T07:44:05.590Z,57.38
2023-04-15T07:47:08.454Z,55.67
2023-04-15T07:50:13.618Z,55.54
2023-04-15T07:53:16.665Z,55.54
2023-04-15T07:56:18.387Z,55.24
2023-04-15T07:59:20.320Z,55.79
2023-04-15T08:02:22.564Z,55.04
2023-04-15T08:05:24.888Z,55.17
2023-04-15T08:08:27.373Z,54.61
2023-04-15T08:11:29.172Z,53.61
2023-04-15T08:14:31.669Z,53.98
2023-04-15T08:17:34.193Z,53.37
2023-04-15T08:20:37.880Z,53.23
2023-04-15T08:23:39.909Z,53.71
2023-04-15T08:26:42.234Z,52.84
2023-04-15T08:29:45.590Z,52.93
2023-04-15T08:32:47.648Z,52.62
2023-04-15T08:35:49.690Z,52.71
2023-04-15T08:38:51.401Z,52.21
2023-04-15T08:42:05.727Z,52.54
2023-04-15T08:45:10.291Z,51.86
2023-04-15T08:48:16.711Z,51.18
2023-04-15T08:51:19.674Z,51.34
2023-04-15T08:54:21.590Z,50.25
2023-04-15T08:57:28.938Z,48.73
2023-04-15T09:00:31.255Z,46.86
2023-04-15T09:03:33.797Z,45.46
2023-04-15T09:06:35.753Z,44.56
2023-04-15T09:09:40.329Z,44.61
2023-04-15T09:12:42.122Z,44.93
2023-04-15T09:15:45.568Z,45.08
2023-04-15T09:18:47.305Z,45.04
2023-04-15T09:21:49.214Z,44.42
2023-04-15T09:24:51.607Z,44.00
2023-04-15T09:27:56.037Z,42.56
2023-04-15T09:30:59.259Z,42.08
2023-04-15T09:34:03.015Z,43.04
2023-04-15T09:37:05.015Z,42.81
2023-04-15T09:40:10.146Z,42.54
2023-04-15T09:43:14.524Z,42.86
2023-04-15T09:46:16.364Z,43.18
2023-04-15T09:49:18.692Z,44.21
2023-04-15T09:52:20.689Z,44.78
2023-04-15T09:55:23.769Z,45.62
2023-04-15T09:58:29.693Z,46.34
2023-04-15T10:01:32.364Z,47.64
2023-04-15T10:04:40.955Z,47.16
2023-04-15T10:07:43.552Z,48.39
2023-04-15T10:10:46.753Z,50.09
2023-04-15T10:13:50.645Z,52.65
2023-04-15T10:16:56.534Z,54.87
2023-04-15T10:20:02.270Z,56.26
2023-04-15T10:23:06.362Z,57.40
2023-04-15T10:26:12.454Z,58.22
2023-04-15T10:40:45.451Z,61.79
2023-04-15T10:43:51.929Z,62.27
2023-04-15T10:46:53.920Z,63.07
2023-04-15T10:50:01.318Z,63.34
2023-04-15T10:53:05.022Z,62.66
2023-04-15T10:56:07.218Z,62.86
2023-04-15T10:59:09.751Z,64.62
2023-04-15T11:02:14.458Z,66.16
2023-04-15T11:05:18.017Z,66.15
2023-04-15T11:08:20.641Z,66.83
2023-04-15T11:11:22.965Z,67.18
2023-04-15T11:14:26.303Z,67.27
2023-04-15T11:17:31.435Z,67.88
2023-04-15T11:20:34.095Z,68.31
2023-04-15T11:23:40.776Z,68.36
2023-04-15T11:26:42.600Z,68.31
2023-04-15T11:29:44.346Z,68.24
2023-04-15T11:32:46.200Z,68.32
2023-04-15T11:35:48.488Z,67.62
2023-04-15T11:38:50.378Z,66.94
2023-04-15T11:41:52.106Z,66.26
2023-04-15T11:45:07.643Z,65.09
2023-04-15T11:48:11.125Z,64.43
2023-04-15T11:51:14.020Z,63.30
2023-04-15T11:54:19.305Z,63.63
2023-04-15T11:57:21.035Z,63.19
2023-04-15T12:00:23.174Z,63.08
2023-04-15T12:03:27.881Z,62.85
2023-04-15T12:06:38.922Z,62.52
2023-04-15T12:09:41.055Z,63.22
2023-04-15T12:12:42.768Z,63.57
2023-04-15T12:15:44.848Z,63.01
2023-04-15T12:18:47.346Z,63.35
2023-04-15T12:21:50.475Z,63.90
2023-04-15T12:24:57.408Z,64.42
2023-04-15T12:27:59.455Z,63.73
2023-04-15T12:31:07.765Z,63.49
2023-04-15T12:34:09.526Z,63.05
2023-04-15T12:37:13.777Z,63.21
2023-04-15T12:40:15.674Z,62.00
2023-04-15T12:43:17.440Z,60.62
2023-04-15T12:46:19.359Z,59.84
2023-04-15T12:49:22.093Z,58.46
2023-04-15T12:52:24.492Z,56.93
2023-04-15T12:55:26.241Z,55.99
2023-04-15T12:58:28.497Z,54.88
2023-04-15T13:01:30.587Z,53.75
2023-04-15T13:04:32.407Z,53.23
2023-04-15T13:07:34.170Z,52.99
2023-04-15T13:10:39.173Z,52.64
2023-04-15T13:13:41.153Z,53.06
2023-04-15T13:16:43.359Z,53.15
2023-04-15T13:19:45.083Z,52.62
2023-04-15T13:22:46.866Z,51.82
2023-04-15T13:25:48.558Z,51.86
2023-04-15T13:28:50.403Z,53.07
2023-04-15T13:31:52.276Z,54.84
2023-04-15T13:34:54.927Z,56.50
2023-04-15T13:37:56.734Z,57.91
2023-04-15T13:40:58.743Z,58.22
2023-04-15T13:44:00.708Z,58.43
2023-04-15T13:47:03.788Z,58.35
2023-04-15T13:50:06.711Z,58.27
2023-04-15T13:53:08.456Z,58.75
2023-04-15T13:56:10.897Z,59.12
2023-04-15T13:59:13.275Z,60.58
2023-04-15T14:02:15.115Z,61.05
2023-04-15T14:05:17.179Z,61.70
2023-04-15T14:08:18.894Z,62.42
2023-04-15T14:11:20.721Z,61.67
2023-04-15T14:14:22.529Z,60.66
2023-04-15T14:17:24.346Z,59.78
2023-04-15T14:20:26.058Z,58.94
2023-04-15T14:23:28.989Z,58.81
2023-04-15T14:26:30.751Z,58.82
2023-04-15T14:29:32.493Z,59.36
2023-04-15T14:32:34.282Z,59.83
2023-04-15T14:35:36.362Z,60.39
2023-04-15T14:38:41.201Z,61.55
2023-04-15T14:41:42.865Z,62.61
2023-04-15T14:44:45.011Z,63.66
2023-04-15T14:47:47.364Z,64.66
2023-04-15T14:50:49.402Z,64.67
2023-04-15T14:53:51.156Z,66.39
2023-04-15T14:56:52.984Z,67.99
2023-04-15T14:59:56.781Z,68.33
2023-04-15T15:02:58.864Z,67.47
2023-04-15T15:06:00.701Z,68.24
2023-04-15T15:09:02.590Z,68.56
2023-04-15T15:12:04.438Z,68.83
2023-04-15T15:15:15.729Z,69.47
2023-04-15T15:18:21.654Z,69.80
2023-04-15T15:21:23.977Z,69.75
2023-04-15T15:24:25.666Z,69.98
2023-04-15T15:27:27.449Z,70.29
2023-04-15T15:30:29.221Z,70.38
2023-04-15T15:33:32.015Z,69.88
2023-04-15T15:36:33.835Z,69.82
2023-04-15T15:39:36.140Z,70.43
2023-04-15T15:42:38.149Z,71.49
2023-04-15T15:45:40.918Z,71.46
2023-04-15T15:48:42.705Z,70.51
2023-04-15T15:51:45.977Z,70.21
2023-04-15T15:54:48.138Z,69.82
2023-04-15T15:57:50.105Z,69.85
2023-04-15T16:00:53.843Z,69.55
2023-04-15T16:03:55.788Z,69.48
2023-04-15T16:06:57.670Z,69.16
2023-04-15T16:09:59.363Z,69.17
2023-04-15T16:13:02.040Z,69.59
2023-04-15T16:16:05.180Z,69.64
2023-04-15T16:19:07.273Z,69.57
2023-04-15T16:22:09.041Z,70.04
2023-04-15T16:25:11.347Z,70.57
2023-04-15T16:28:25.685Z,70.70
2023-04-15T16:31:28.738Z,71.23
2023-04-15T16:34:30.677Z,71.18
2023-04-15T16:37:33.375Z,71.37
2023-04-15T16:40:35.130Z,71.40
2023-04-15T16:43:36.974Z,71.69
2023-04-15T16:46:40.803Z,71.97
2023-04-15T16:49:42.843Z,72.04
2023-04-15T16:52:44.678Z,72.74
2023-04-15T16:55:46.453Z,73.11
2023-04-15T16:58:48.278Z,73.29
2023-04-15T17:01:50.461Z,73.44
2023-04-15T17:04:52.281Z,72.96
2023-04-15T17:07:54.052Z,72.92
2023-04-15T17:10:57.684Z,73.52
2023-04-15T17:13:59.417Z,73.09
2023-04-15T17:17:01.741Z,73.50
2023-04-15T17:20:04.255Z,73.74
2023-04-15T17:23:06.116Z,73.77
2023-04-15T17:26:08.086Z,73.95
2023-04-15T17:29:10.007Z,73.84
2023-04-15T17:32:11.729Z,73.68
2023-04-15T17:35:13.459Z,73.88
2023-04-15T17:38:15.560Z,74.12
2023-04-15T17:41:17.384Z,74.59
2023-04-15T17:44:20.280Z,74.83
2023-04-15T17:47:23.151Z,74.71
2023-04-15T17:50:24.878Z,74.29
2023-04-15T17:53:27.691Z,73.97
2023-04-15T17:56:29.685Z,73.55
2023-04-15T17:59:31.577Z,73.46
2023-04-15T18:02:36.117Z,73.61
2023-04-15T18:05:41.355Z,73.91
2023-04-15T18:08:44.327Z,74.39
2023-04-15T18:11:48.477Z,74.32
2023-04-15T18:14:50.534Z,74.38
2023-04-15T18:17:52.828Z,74.42
2023-04-15T18:20:54.619Z,74.14
2023-04-15T18:23:56.393Z,73.80
2023-04-15T18:26:59.145Z,73.73
2023-04-15T18:30:01.064Z,73.93
2023-04-15T18:33:02.916Z,73.99
2023-04-15T18:36:04.740Z,74.20
2023-04-15T18:39:06.641Z,74.05
2023-04-15T18:42:08.620Z,73.88
2023-04-15T18:45:10.993Z,73.81
2023-04-15T18:48:14.351Z,74.32
2023-04-15T18:51:16.312Z,74.24
2023-04-15T18:54:18.138Z,74.51
2023-04-15T18:57:19.931Z,74.25
2023-04-15T19:00:26.422Z,74.22
2023-04-15T19:03:29.169Z,74.17
2023-04-15T19:06:30.994Z,74.10
2023-04-15T19:09:32.913Z,74.09
2023-04-15T19:12:36.573Z,73.74
2023-04-15T19:15:38.351Z,74.10
2023-04-15T19:18:40.090Z,73.92
2023-04-15T19:21:42.361Z,73.71
2023-04-15T19:24:44.362Z,73.84
2023-04-15T19:27:46.150Z,73.98
2023-04-15T19:30:47.956Z,73.98
2023-04-15T19:33:49.698Z,74.21
2023-04-15T19:36:51.481Z,74.44
2023-04-15T19:39:54.740Z,74.54
2023-04-15T19:42:56.490Z,74.51
2023-04-15T19:45:58.949Z,74.92
2023-04-15T19:49:01.458Z,75.04
2023-04-15T19:52:04.432Z,75.08
2023-04-15T19:55:06.583Z,74.95
2023-04-15T19:58:08.348Z,75.06
2023-04-15T20:01:10.096Z,75.23
2023-04-15T20:04:12.039Z,75.24
2023-04-15T20:07:14.045Z,75.25
2023-04-15T20:10:15.925Z,75.60
2023-04-15T20:13:17.621Z,75.43
2023-04-15T20:16:19.355Z,75.63
2023-04-15T20:19:22.238Z,75.27
2023-04-15T20:22:24.065Z,75.50
2023-04-15T20:25:26.011Z,75.31
2023-04-15T20:28:27.848Z,75.17
2023-04-15T20:31:29.685Z,75.43
2023-04-15T20:34:31.806Z,75.20
2023-04-15T20:37:33.952Z,75.36
2023-04-15T20:40:36.437Z,75.53
2023-04-15T20:43:38.185Z,75.34
2023-04-15T20:46:39.977Z,75.42
2023-04-15T20:49:41.716Z,75.04
2023-04-15T20:52:43.480Z,75.24
2023-04-15T20:55:45.648Z,75.13
2023-04-15T20:58:47.437Z,75.49
2023-04-15T21:01:49.298Z,75.47
2023-04-15T21:04:51.888Z,75.36
2023-04-15T21:07:54.295Z,75.18
2023-04-15T21:10:56.881Z,75.04
2023-04-15T21:13:58.913Z,75.19
2023-04-15T21:17:07.797Z,75.06
2023-04-15T21:20:11.674Z,74.89
2023-04-15T21:23:13.411Z,75.09
2023-04-15T21:26:15.279Z,74.93
2023-04-15T21:29:17.177Z,74.59
2023-04-15T21:32:19.067Z,74.91
2023-04-15T21:35:21.009Z,74.96
2023-04-15T21:38:23.536Z,75.38
2023-04-15T21:41:25.782Z,75.04
2023-04-15T21:44:27.594Z,75.27
2023-04-15T21:47:29.393Z,75.10
2023-04-15T21:50:31.506Z,75.24
2023-04-15T21:53:33.571Z,75.13
2023-04-15T21:56:35.558Z,75.54
2023-04-15T21:59:37.366Z,75.40
2023-04-15T22:02:39.325Z,75.33
2023-04-15T22:05:44.879Z,75.40
2023-04-15T22:08:55.909Z,75.29
2023-04-15T22:11:59.548Z,75.32
2023-04-15T22:15:01.925Z,75.29
2023-04-15T22:18:04.806Z,75.52
2023-04-15T22:21:06.638Z,75.04
2023-04-15T22:24:33.025Z,75.21
2023-04-15T22:27:30.670Z,75.07
2023-04-15T22:30:33.906Z,75.12
2023-04-15T22:33:35.780Z,75.39
2023-04-15T22:36:37.566Z,75.38
2023-04-15T22:39:39.456Z,75.36
2023-04-15T22:42:41.196Z,75.32
2023-04-15T22:45:42.979Z,75.00
2023-04-15T22:48:44.706Z,75.24
2023-04-15T22:51:46.522Z,75.23
2023-04-15T22:54:48.419Z,75.21
2023-04-15T22:57:50.422Z,74.97
2023-04-15T23:00:52.330Z,75.23
2023-04-15T23:03:57.279Z,75.27
2023-04-15T23:07:10.262Z,75.30
2023-04-15T23:10:12.014Z,75.43
2023-04-15T23:13:13.970Z,75.48
2023-04-15T23:16:16.074Z,75.29
2023-04-15T23:19:17.963Z,75.57
2023-04-15T23:22:19.742Z,75.44
2023-04-15T23:25:22.800Z,75.84
2023-04-15T23:28:24.689Z,75.65
2023-04-15T23:31:26.674Z,75.57
2023-04-15T23:34:28.464Z,75.37
2023-04-15T23:37:31.652Z,75.37
2023-04-15T23:40:33.566Z,75.33
2023-04-15T23:43:35.421Z,75.32
2023-04-15T23:46:37.274Z,75.71
2023-04-15T23:49:40.976Z,75.68
2023-04-15T23:52:42.822Z,75.57
2023-04-15T23:55:44.644Z,75.50
2023-04-15T23:58:46.414Z,75.66
